sensor_id;sensor_type;location;lat;lon;timestamp;pressure;altitude;pressure_sealevel;temperature;humidity
7832;BME280;3961;42.058;25.586;2022-08-21T00:00:20;65026.88;;;24.69;86.23
7832;BME280;3961;42.058;25.586;2022-08-21T00:02:53;65029.22;;;24.71;86.23
7832;BME280;3961;42.058;25.586;2022-08-21T00:05:21;65005.34;;;24.46;87.47
7832;BME280;3961;42.058;25.586;2022-08-21T00:07:47;65008.84;;;24.49;87.25
7832;BME280;3961;42.058;25.586;2022-08-21T00:10:13;65020.22;;;24.61;86.57
7832;BME280;3961;42.058;25.586;2022-08-21T00:12:40;65011.78;;;24.52;86.99
7832;BME280;3961;42.058;25.586;2022-08-21T00:15:07;65001.44;;;24.45;87.03
7832;BME280;3961;42.058;25.586;2022-08-21T00:17:33;64997.13;;;24.39;87.59
7832;BME280;3961;42.058;25.586;2022-08-21T00:19:58;64988.34;;;24.31;87.30
7832;BME280;3961;42.058;25.586;2022-08-21T00:22:24;64976.22;;;24.23;87.96
7832;BME280;3961;42.058;25.586;2022-08-21T00:24:49;64971.53;;;24.19;88.25
7832;BME280;3961;42.058;25.586;2022-08-21T00:27:15;64983.66;;;24.27;87.61
7832;BME280;3961;42.058;25.586;2022-08-21T00:29:41;64985.41;;;24.29;87.92
7832;BME280;3961;42.058;25.586;2022-08-21T00:32:07;64996.16;;;24.40;87.24
7832;BME280;3961;42.058;25.586;2022-08-21T00:34:32;64968.38;;;24.14;86.30
7832;BME280;3961;42.058;25.586;2022-08-21T00:36:58;64996.53;;;24.38;87.03
7832;BME280;3961;42.058;25.586;2022-08-21T00:39:23;64994.63;;;24.41;87.01
7832;BME280;3961;42.058;25.586;2022-08-21T00:41:49;65000.28;;;24.44;86.50
7832;BME280;3961;42.058;25.586;2022-08-21T00:44:15;64992.06;;;24.37;86.81
7832;BME280;3961;42.058;25.586;2022-08-21T00:46:41;64995.00;;;24.39;86.95
7832;BME280;3961;42.058;25.586;2022-08-21T00:49:09;64996.75;;;24.41;87.02
7832;BME280;3961;42.058;25.586;2022-08-21T00:51:39;65007.91;;;24.51;86.67
7832;BME280;3961;42.058;25.586;2022-08-21T00:54:07;65022.94;;;24.61;86.03
7832;BME280;3961;42.058;25.586;2022-08-21T00:56:34;65021.16;;;24.60;85.92
7832;BME280;3961;42.058;25.586;2022-08-21T00:59:01;65027.03;;;24.65;85.84
7832;BME280;3961;42.058;25.586;2022-08-21T01:01:27;65037.56;;;24.74;85.28
7832;BME280;3961;42.058;25.586;2022-08-21T01:03:52;65045.78;;;24.81;85.14
7832;BME280;3961;42.058;25.586;2022-08-21T01:06:18;65040.72;;;24.79;84.67
7832;BME280;3961;42.058;25.586;2022-08-21T01:08:44;65044.03;;;24.79;84.72
7832;BME280;3961;42.058;25.586;2022-08-21T01:11:10;65023.94;;;24.67;84.55
7832;BME280;3961;42.058;25.586;2022-08-21T01:13:36;65047.75;;;24.85;84.44
7832;BME280;3961;42.058;25.586;2022-08-21T01:16:08;65059.28;;;24.93;84.05
7832;BME280;3961;42.058;25.586;2022-08-21T01:18:34;65051.06;;;24.86;84.40
7832;BME280;3961;42.058;25.586;2022-08-21T01:23:35;65010.03;;;24.50;85.42
7832;BME280;3961;42.058;25.586;2022-08-21T01:26:01;65009.06;;;24.52;86.10
7832;BME280;3961;42.058;25.586;2022-08-21T01:28:28;64992.06;;;24.37;86.54
7832;BME280;3961;42.058;25.586;2022-08-21T01:30:57;65005.34;;;24.46;86.59
7832;BME280;3961;42.058;25.586;2022-08-21T01:33:24;65007.09;;;24.48;86.73
7832;BME280;3961;42.058;25.586;2022-08-21T01:35:50;64996.34;;;24.36;87.43
7832;BME280;3961;42.058;25.586;2022-08-21T01:38:16;64992.44;;;24.35;87.37
7832;BME280;3961;42.058;25.586;2022-08-21T01:40:43;64985.41;;;24.29;87.47
7832;BME280;3961;42.058;25.586;2022-08-21T01:43:09;64990.69;;;24.33;87.50
7832;BME280;3961;42.058;25.586;2022-08-21T01:45:34;64987.38;;;24.33;88.00
7832;BME280;3961;42.058;25.586;2022-08-21T01:48:00;64977.78;;;24.22;88.74
7832;BME280;3961;42.058;25.586;2022-08-21T01:50:27;64982.69;;;24.29;88.26
7832;BME280;3961;42.058;25.586;2022-08-21T01:52:53;64997.50;;;24.37;88.22
7832;BME280;3961;42.058;25.586;2022-08-21T01:55:19;64963.09;;;24.09;88.36
7832;BME280;3961;42.058;25.586;2022-08-21T01:57:45;64999.47;;;24.41;87.89
7832;BME280;3961;42.058;25.586;2022-08-21T02:00:13;65007.31;;;24.50;87.62
7832;BME280;3961;42.058;25.586;2022-08-21T02:02:39;65006.50;;;24.47;87.75
7832;BME280;3961;42.058;25.586;2022-08-21T02:05:07;64993.22;;;24.38;88.43
7832;BME280;3961;42.058;25.586;2022-08-21T02:07:39;64951.63;;;24.02;91.32
7832;BME280;3961;42.058;25.586;2022-08-21T02:10:07;64955.13;;;24.05;91.63
7832;BME280;3961;42.058;25.586;2022-08-21T02:12:33;64966.03;;;24.12;91.31
7832;BME280;3961;42.058;25.586;2022-08-21T02:14:59;64935.78;;;23.88;95.49
7832;BME280;3961;42.058;25.586;2022-08-21T02:17:26;64933.81;;;23.84;98.32
7832;BME280;3961;42.058;25.586;2022-08-21T02:19:51;64914.34;;;23.72;99.13
7832;BME280;3961;42.058;25.586;2022-08-21T02:22:17;64902.63;;;23.62;98.73
7832;BME280;3961;42.058;25.586;2022-08-21T02:24:42;64920.91;;;23.73;96.72
7832;BME280;3961;42.058;25.586;2022-08-21T02:27:09;64855.75;;;23.21;98.23
7832;BME280;3961;42.058;25.586;2022-08-21T02:29:34;64851.81;;;23.13;99.47
7832;BME280;3961;42.058;25.586;2022-08-21T02:32:00;64838.22;;;23.06;100.00
7832;BME280;3961;42.058;25.586;2022-08-21T02:34:26;64816.09;;;22.82;100.00
7832;BME280;3961;42.058;25.586;2022-08-21T02:36:51;64818.00;;;22.79;100.00
7832;BME280;3961;42.058;25.586;2022-08-21T02:39:17;64796.63;;;22.70;100.00
7832;BME280;3961;42.058;25.586;2022-08-21T02:41:42;64802.28;;;22.72;100.00
7832;BME280;3961;42.058;25.586;2022-08-21T02:44:08;64811.75;;;22.76;100.00
7832;BME280;3961;42.058;25.586;2022-08-21T02:46:34;64813.75;;;22.80;100.00
7832;BME280;3961;42.058;25.586;2022-08-21T02:48:59;64781.19;;;22.54;100.00
7832;BME280;3961;42.058;25.586;2022-08-21T02:51:25;64807.28;;;22.74;100.00
7832;BME280;3961;42.058;25.586;2022-08-21T02:53:52;64790.94;;;22.60;100.00
7832;BME280;3961;42.058;25.586;2022-08-21T02:56:20;64806.34;;;22.76;100.00
7832;BME280;3961;42.058;25.586;2022-08-21T02:58:49;64822.19;;;22.90;100.00
7832;BME280;3961;42.058;25.586;2022-08-21T03:01:17;64814.56;;;22.83;100.00
7832;BME280;3961;42.058;25.586;2022-08-21T03:03:44;64818.09;;;22.86;100.00
7832;BME280;3961;42.058;25.586;2022-08-21T03:06:14;64809.53;;;22.81;100.00
7832;BME280;3961;42.058;25.586;2022-08-21T03:08:40;64803.44;;;22.73;100.00
7832;BME280;3961;42.058;25.586;2022-08-21T03:11:06;64796.63;;;22.70;100.00
7832;BME280;3961;42.058;25.586;2022-08-21T03:13:32;64808.09;;;22.77;100.00
7832;BME280;3961;42.058;25.586;2022-08-21T03:15:58;64789.03;;;22.63;100.00
7832;BME280;3961;42.058;25.586;2022-08-21T03:18:23;64815.88;;;22.79;100.00
7832;BME280;3961;42.058;25.586;2022-08-21T03:20:49;64785.06;;;22.55;100.00
7832;BME280;3961;42.058;25.586;2022-08-21T03:23:17;64771.25;;;22.45;100.00
7832;BME280;3961;42.058;25.586;2022-08-21T03:25:44;64784.72;;;22.57;100.00
7832;BME280;3961;42.058;25.586;2022-08-21T03:28:14;64787.41;;;22.57;100.00
7832;BME280;3961;42.058;25.586;2022-08-21T03:30:45;64793.72;;;22.67;100.00
7832;BME280;3961;42.058;25.586;2022-08-21T03:33:12;64779.66;;;22.55;100.00
7832;BME280;3961;42.058;25.586;2022-08-21T03:35:38;64789.16;;;22.59;100.00
7832;BME280;3961;42.058;25.586;2022-08-21T03:38:04;64780.03;;;22.53;100.00
7832;BME280;3961;42.058;25.586;2022-08-21T03:40:29;64782.38;;;22.55;100.00
7832;BME280;3961;42.058;25.586;2022-08-21T03:42:55;64761.91;;;22.37;100.00
7832;BME280;3961;42.058;25.586;2022-08-21T03:45:21;64762.84;;;22.36;100.00
7832;BME280;3961;42.058;25.586;2022-08-21T03:48:01;64762.13;;;22.40;100.00
7832;BME280;3961;42.058;25.586;2022-08-21T03:50:32;64740.25;;;22.19;100.00
7832;BME280;3961;42.058;25.586;2022-08-21T03:52:58;64762.84;;;22.36;100.00
7832;BME280;3961;42.058;25.586;2022-08-21T03:55:24;64759.19;;;22.37;100.00
7832;BME280;3961;42.058;25.586;2022-08-21T03:57:50;64759.94;;;22.33;100.00
7832;BME280;3961;42.058;25.586;2022-08-21T04:00:17;64772.06;;;22.49;100.00
7832;BME280;3961;42.058;25.586;2022-08-21T04:02:44;64769.50;;;22.44;100.00
7832;BME280;3961;42.058;25.586;2022-08-21T04:05:12;64704.19;;;21.90;100.00
7832;BME280;3961;42.058;25.586;2022-08-21T04:07:38;64753.94;;;22.33;100.00
7832;BME280;3961;42.058;25.586;2022-08-21T04:10:05;64756.63;;;22.33;100.00
7832;BME280;3961;42.058;25.586;2022-08-21T04:12:31;64756.41;;;22.30;100.00
7832;BME280;3961;42.058;25.586;2022-08-21T04:14:57;64757.59;;;22.31;100.00
7832;BME280;3961;42.058;25.586;2022-08-21T04:17:24;64754.06;;;22.28;100.00
7832;BME280;3961;42.058;25.586;2022-08-21T04:19:49;64775.47;;;22.44;100.00
7832;BME280;3961;42.058;25.586;2022-08-21T04:22:16;64788.22;;;22.60;100.00
7832;BME280;3961;42.058;25.586;2022-08-21T04:24:42;64785.06;;;22.55;100.00
7832;BME280;3961;42.058;25.586;2022-08-21T04:27:07;64788.00;;;22.58;100.00
7832;BME280;3961;42.058;25.586;2022-08-21T04:29:33;64787.41;;;22.57;100.00
7832;BME280;3961;42.058;25.586;2022-08-21T04:31:58;64792.91;;;22.64;100.00
7832;BME280;3961;42.058;25.586;2022-08-21T04:34:24;64799.34;;;22.70;100.00
7832;BME280;3961;42.058;25.586;2022-08-21T04:36:50;64812.81;;;22.82;100.00
7832;BME280;3961;42.058;25.586;2022-08-21T04:39:15;64831.56;;;22.98;100.00
7832;BME280;3961;42.058;25.586;2022-08-21T04:41:41;64814.13;;;22.78;100.00
7832;BME280;3961;42.058;25.586;2022-08-21T04:44:06;64819.63;;;22.85;100.00
7832;BME280;3961;42.058;25.586;2022-08-21T04:46:34;64826.88;;;22.94;100.00
7832;BME280;3961;42.058;25.586;2022-08-21T04:48:59;64830.16;;;22.94;100.00
7832;BME280;3961;42.058;25.586;2022-08-21T04:51:29;64803.44;;;22.73;100.00
7832;BME280;3961;42.058;25.586;2022-08-21T04:54:01;64806.94;;;22.76;100.00
7832;BME280;3961;42.058;25.586;2022-08-21T04:56:32;64797.22;;;22.70;100.00
7832;BME280;3961;42.058;25.586;2022-08-21T04:59:03;64799.13;;;22.67;100.00
7832;BME280;3961;42.058;25.586;2022-08-21T05:01:32;64778.84;;;22.52;100.00
7832;BME280;3961;42.058;25.586;2022-08-21T05:04:01;64797.94;;;22.66;100.00
7832;BME280;3961;42.058;25.586;2022-08-21T05:06:28;64789.41;;;22.61;100.00
7832;BME280;3961;42.058;25.586;2022-08-21T05:08:56;64799.56;;;22.72;100.00
7832;BME280;3961;42.058;25.586;2022-08-21T05:11:23;64798.03;;;22.73;100.00
7832;BME280;3961;42.058;25.586;2022-08-21T05:13:49;64820.06;;;22.90;100.00
7832;BME280;3961;42.058;25.586;2022-08-21T05:16:15;64824.75;;;22.94;100.00
7832;BME280;3961;42.058;25.586;2022-08-21T05:18:42;64829.44;;;22.98;100.00
7832;BME280;3961;42.058;25.586;2022-08-21T05:21:08;64781.56;;;22.52;100.00
7832;BME280;3961;42.058;25.586;2022-08-21T05:23:35;64825.69;;;22.93;100.00
7832;BME280;3961;42.058;25.586;2022-08-21T05:26:00;64827.97;;;22.88;100.00
7832;BME280;3961;42.058;25.586;2022-08-21T05:28:26;64822.19;;;22.90;100.00
7832;BME280;3961;42.058;25.586;2022-08-21T05:30:52;64789.53;;;22.57;100.00
7832;BME280;3961;42.058;25.586;2022-08-21T05:33:18;64814.34;;;22.81;100.00
7832;BME280;3961;42.058;25.586;2022-08-21T05:35:44;64832.13;;;22.98;100.00
7832;BME280;3961;42.058;25.586;2022-08-21T05:38:10;64831.56;;;22.98;100.00
7832;BME280;3961;42.058;25.586;2022-08-21T05:40:35;64850.63;;;23.12;100.00
7832;BME280;3961;42.058;25.586;2022-08-21T05:43:01;64835.28;;;23.03;100.00
7832;BME280;3961;42.058;25.586;2022-08-21T05:45:29;64853.56;;;23.15;100.00
7832;BME280;3961;42.058;25.586;2022-08-21T05:47:54;64862.34;;;23.22;100.00
7832;BME280;3961;42.058;25.586;2022-08-21T05:50:20;64863.16;;;23.25;100.00
7832;BME280;3961;42.058;25.586;2022-08-21T05:52:46;64854.59;;;23.20;100.00
7832;BME280;3961;42.058;25.586;2022-08-21T05:55:12;64827.31;;;22.99;100.00
7832;BME280;3961;42.058;25.586;2022-08-21T05:57:37;64807.53;;;22.77;100.00
7832;BME280;3961;42.058;25.586;2022-08-21T06:00:07;64846.16;;;23.10;100.00
7832;BME280;3961;42.058;25.586;2022-08-21T06:02:35;64847.94;;;23.12;100.00
7832;BME280;3961;42.058;25.586;2022-08-21T06:05:00;64851.44;;;23.15;100.00
7832;BME280;3961;42.058;25.586;2022-08-21T06:07:26;64842.66;;;23.07;100.00
7832;BME280;3961;42.058;25.586;2022-08-21T06:09:52;64793.13;;;22.67;100.00
7832;BME280;3961;42.058;25.586;2022-08-21T06:12:17;64835.88;;;23.04;100.00
7832;BME280;3961;42.058;25.586;2022-08-21T06:14:43;64812.22;;;22.81;100.00
7832;BME280;3961;42.058;25.586;2022-08-21T06:17:11;64848.16;;;23.15;100.00
7832;BME280;3961;42.058;25.586;2022-08-21T06:19:37;64842.06;;;23.07;100.00
7832;BME280;3961;42.058;25.586;2022-08-21T06:22:04;64848.72;;;23.15;100.00
7832;BME280;3961;42.058;25.586;2022-08-21T06:24:30;64849.69;;;23.13;100.00
7832;BME280;3961;42.058;25.586;2022-08-21T06:26:56;64864.91;;;23.27;100.00
7832;BME280;3961;42.058;25.586;2022-08-21T06:29:22;64845.16;;;23.05;100.00
7832;BME280;3961;42.058;25.586;2022-08-21T06:31:49;64843.63;;;23.06;100.00
7832;BME280;3961;42.058;25.586;2022-08-21T06:34:15;64836.00;;;22.99;100.00
7832;BME280;3961;42.058;25.586;2022-08-21T06:36:41;64860.81;;;23.23;100.00
7832;BME280;3961;42.058;25.586;2022-08-21T06:39:08;64856.13;;;23.19;100.00
7832;BME280;3961;42.058;25.586;2022-08-21T06:41:33;64862.78;;;23.27;100.00
7832;BME280;3961;42.058;25.586;2022-08-21T06:43:59;64855.53;;;23.19;100.00
7832;BME280;3961;42.058;25.586;2022-08-21T06:46:27;64872.53;;;23.33;100.00
7832;BME280;3961;42.058;25.586;2022-08-21T06:48:53;64876.03;;;23.36;100.00
7832;BME280;3961;42.058;25.586;2022-08-21T06:51:19;64874.50;;;23.37;100.00
7832;BME280;3961;42.058;25.586;2022-08-21T06:53:45;64888.09;;;23.44;100.00
7832;BME280;3961;42.058;25.586;2022-08-21T06:56:11;64880.13;;;23.40;100.00
7832;BME280;3961;42.058;25.586;2022-08-21T06:58:36;64886.78;;;23.48;100.00
7832;BME280;3961;42.058;25.586;2022-08-21T07:01:03;64873.34;;;23.36;100.00
7832;BME280;3961;42.058;25.586;2022-08-21T07:03:32;64867.25;;;23.29;100.00
7832;BME280;3961;42.058;25.586;2022-08-21T07:05:58;64881.69;;;23.39;100.00
7832;BME280;3961;42.058;25.586;2022-08-21T07:08:26;64850.41;;;23.09;100.00
7832;BME280;3961;42.058;25.586;2022-08-21T07:10:53;64881.69;;;23.39;100.00
7832;BME280;3961;42.058;25.586;2022-08-21T07:13:20;64843.47;;;23.10;100.00
7832;BME280;3961;42.058;25.586;2022-08-21T07:15:46;64819.63;;;22.85;100.00
7832;BME280;3961;42.058;25.586;2022-08-21T07:18:12;64840.69;;;23.03;100.00
7832;BME280;3961;42.058;25.586;2022-08-21T07:20:39;64849.31;;;23.16;100.00
7832;BME280;3961;42.058;25.586;2022-08-21T07:23:09;64855.19;;;23.21;100.00
7832;BME280;3961;42.058;25.586;2022-08-21T07:25:36;64849.69;;;23.13;100.00
7832;BME280;3961;42.058;25.586;2022-08-21T07:28:02;64803.44;;;22.73;100.00
7832;BME280;3961;42.058;25.586;2022-08-21T07:30:27;64809.31;;;22.78;100.00
7832;BME280;3961;42.058;25.586;2022-08-21T07:32:54;64867.25;;;23.29;100.00
7832;BME280;3961;42.058;25.586;2022-08-21T07:35:20;64877.22;;;23.37;100.00
7832;BME280;3961;42.058;25.586;2022-08-21T07:37:47;64864.56;;;23.29;100.00
7832;BME280;3961;42.058;25.586;2022-08-21T07:40:13;64870.19;;;23.31;100.00
7832;BME280;3961;42.058;25.586;2022-08-21T07:42:43;64887.75;;;23.46;100.00
7832;BME280;3961;42.058;25.586;2022-08-21T07:45:10;64906.72;;;23.65;100.00
7832;BME280;3961;42.058;25.586;2022-08-21T07:47:36;64900.28;;;23.60;100.00
7832;BME280;3961;42.058;25.586;2022-08-21T07:50:02;64918.44;;;23.75;100.00
7832;BME280;3961;42.058;25.586;2022-08-21T07:52:28;64932.28;;;23.85;100.00
7832;BME280;3961;42.058;25.586;2022-08-21T07:54:53;64953.56;;;24.06;100.00
7832;BME280;3961;42.058;25.586;2022-08-21T07:57:19;64962.75;;;24.11;100.00
7832;BME280;3961;42.058;25.586;2022-08-21T07:59:45;64991.09;;;24.38;100.00
7832;BME280;3961;42.058;25.586;2022-08-21T08:02:21;65013.97;;;24.58;100.00
7832;BME280;3961;42.058;25.586;2022-08-21T08:04:47;65031.19;;;24.75;100.00
7832;BME280;3961;42.058;25.586;2022-08-21T08:07:13;65021.38;;;24.62;100.00
7832;BME280;3961;42.058;25.586;2022-08-21T08:09:38;65034.06;;;24.71;100.00
7832;BME280;3961;42.058;25.586;2022-08-21T08:12:04;65030.75;;;24.70;100.00
7832;BME280;3961;42.058;25.586;2022-08-21T08:14:30;65033.69;;;24.73;100.00
7832;BME280;3961;42.058;25.586;2022-08-21T08:16:55;65051.66;;;24.86;100.00
7832;BME280;3961;42.058;25.586;2022-08-21T08:19:21;65055.97;;;24.92;100.00
7832;BME280;3961;42.058;25.586;2022-08-21T08:21:46;65067.94;;;25.05;100.00
7832;BME280;3961;42.058;25.586;2022-08-21T08:24:12;65081.81;;;25.15;100.00
7832;BME280;3961;42.058;25.586;2022-08-21T08:26:37;65096.25;;;25.25;100.00
7832;BME280;3961;42.058;25.586;2022-08-21T08:29:03;65083.19;;;25.18;100.00
7832;BME280;3961;42.058;25.586;2022-08-21T08:31:28;65084.31;;;25.12;100.00
7832;BME280;3961;42.058;25.586;2022-08-21T08:33:54;65072.63;;;25.09;100.00
7832;BME280;3961;42.058;25.586;2022-08-21T08:36:20;65088.03;;;25.18;100.00
7832;BME280;3961;42.058;25.586;2022-08-21T08:38:56;65081.59;;;25.12;100.00
7832;BME280;3961;42.058;25.586;2022-08-21T08:41:21;65060.47;;;24.94;100.00
7832;BME280;3961;42.058;25.586;2022-08-21T08:43:51;65053.47;;;24.95;100.00
7832;BME280;3961;42.058;25.586;2022-08-21T08:46:20;65073.00;;;25.07;100.00
7832;BME280;3961;42.058;25.586;2022-08-21T08:48:57;65052.47;;;24.89;100.00
7832;BME280;3961;42.058;25.586;2022-08-21T08:51:29;65059.53;;;24.95;100.00
7832;BME280;3961;42.058;25.586;2022-08-21T08:54:03;65070.06;;;25.04;100.00
7832;BME280;3961;42.058;25.586;2022-08-21T08:56:33;65049.16;;;24.89;100.00
7832;BME280;3961;42.058;25.586;2022-08-21T08:59:09;65057.41;;;24.96;100.00
7832;BME280;3961;42.058;25.586;2022-08-21T09:01:39;65032.09;;;24.67;100.00
7832;BME280;3961;42.058;25.586;2022-08-21T09:04:05;65036.41;;;24.73;100.00
7832;BME280;3961;42.058;25.586;2022-08-21T09:06:40;65021.38;;;24.62;100.00
7832;BME280;3961;42.058;25.586;2022-08-21T09:12:16;65034.06;;;24.71;100.00
7832;BME280;3961;42.058;25.586;2022-08-21T09:20:36;65040.34;;;24.81;100.00
7832;BME280;3961;42.058;25.586;2022-08-21T09:26:04;65024.09;;;24.62;100.00
7832;BME280;3961;42.058;25.586;2022-08-21T09:28:36;65037.19;;;24.76;100.00
7832;BME280;3961;42.058;25.586;2022-08-21T09:31:06;65054.00;;;24.88;100.00
7832;BME280;3961;42.058;25.586;2022-08-21T09:33:32;65059.53;;;24.95;100.00
7832;BME280;3961;42.058;25.586;2022-08-21T09:35:57;65041.31;;;24.79;100.00
7832;BME280;3961;42.058;25.586;2022-08-21T09:38:32;65049.91;;;24.85;100.00
7832;BME280;3961;42.058;25.586;2022-08-21T09:41:04;64992.66;;;24.37;100.00
7832;BME280;3961;42.058;25.586;2022-08-21T09:43:31;65031.13;;;24.68;100.00
7832;BME280;3961;42.058;25.586;2022-08-21T09:46:21;65026.09;;;24.66;100.00
7832;BME280;3961;42.058;25.586;2022-08-21T09:48:53;64991.28;;;24.34;100.00
7832;BME280;3961;42.058;25.586;2022-08-21T09:56:34;64996.16;;;24.40;100.00
7832;BME280;3961;42.058;25.586;2022-08-21T09:59:29;65009.44;;;24.50;100.00
7832;BME280;3961;42.058;25.586;2022-08-21T10:02:03;65015.53;;;24.57;100.00
7832;BME280;3961;42.058;25.586;2022-08-21T10:04:40;65042.13;;;24.83;100.00
7832;BME280;3961;42.058;25.586;2022-08-21T10:07:13;65045.56;;;24.78;100.00
7832;BME280;3961;42.058;25.586;2022-08-21T10:09:40;65048.34;;;24.86;100.00
7832;BME280;3961;42.058;25.586;2022-08-21T10:12:17;65046.38;;;24.82;100.00
7832;BME280;3961;42.058;25.586;2022-08-21T10:15:06;65058.31;;;24.94;100.00
7832;BME280;3961;42.058;25.586;2022-08-21T10:20:43;65059.88;;;24.93;100.00
7832;BME280;3961;42.058;25.586;2022-08-21T10:26:50;65042.47;;;24.81;100.00
7832;BME280;3961;42.058;25.586;2022-08-21T10:29:19;65057.75;;;24.94;100.00
7832;BME280;3961;42.058;25.586;2022-08-21T10:32:05;65069.28;;;25.01;100.00
7832;BME280;3961;42.058;25.586;2022-08-21T10:42:40;65098.00;;;25.26;100.00
7832;BME280;3961;42.058;25.586;2022-08-21T10:45:40;65102.94;;;25.33;100.00
7832;BME280;3961;42.058;25.586;2022-08-21T10:48:22;65084.38;;;25.19;100.00
7832;BME280;3961;42.058;25.586;2022-08-21T10:56:39;65132.47;;;25.61;100.00
7832;BME280;3961;42.058;25.586;2022-08-21T11:07:18;65184.72;;;26.06;99.53
7832;BME280;3961;42.058;25.586;2022-08-21T11:09:47;65189.59;;;26.05;99.43
7832;BME280;3961;42.058;25.586;2022-08-21T11:12:31;65179.25;;;25.99;98.53
7832;BME280;3961;42.058;25.586;2022-08-21T11:17:54;65211.91;;;26.25;98.76
7832;BME280;3961;42.058;25.586;2022-08-21T11:20:31;65219.59;;;26.38;96.62
7832;BME280;3961;42.058;25.586;2022-08-21T11:23:22;65219.19;;;26.33;96.44
7832;BME280;3961;42.058;25.586;2022-08-21T11:25:58;65243.28;;;26.54;93.97
7832;BME280;3961;42.058;25.586;2022-08-21T11:28:33;65283.59;;;26.87;92.46
7832;BME280;3961;42.058;25.586;2022-08-21T11:39:16;65417.66;;;28.02;86.64
7832;BME280;3961;42.058;25.586;2022-08-21T11:42:05;65449.47;;;28.30;82.33
7832;BME280;3961;42.058;25.586;2022-08-21T11:47:56;65469.47;;;28.47;81.41
7832;BME280;3961;42.058;25.586;2022-08-21T11:50:28;65480.09;;;28.56;82.14
7832;BME280;3961;42.058;25.586;2022-08-21T11:53:07;65509.53;;;28.82;80.31
7832;BME280;3961;42.058;25.586;2022-08-21T11:55:47;65518.56;;;28.92;80.08
7832;BME280;3961;42.058;25.586;2022-08-21T11:58:24;65525.78;;;28.93;77.54
7832;BME280;3961;42.058;25.586;2022-08-21T12:01:05;65494.19;;;28.68;76.85
7832;BME280;3961;42.058;25.586;2022-08-21T12:03:38;65519.53;;;28.90;76.11
7832;BME280;3961;42.058;25.586;2022-08-21T12:06:08;65510.72;;;28.83;70.13
7832;BME280;3961;42.058;25.586;2022-08-21T12:08:37;65535.81;;;29.02;70.19
7832;BME280;3961;42.058;25.586;2022-08-21T12:14:00;65553.91;;;29.22;70.00
7832;BME280;3961;42.058;25.586;2022-08-21T12:16:41;65564.88;;;29.29;69.34
7832;BME280;3961;42.058;25.586;2022-08-21T12:26:59;65608.69;;;29.69;66.95
7832;BME280;3961;42.058;25.586;2022-08-21T12:29:27;65633.63;;;29.86;66.21
7832;BME280;3961;42.058;25.586;2022-08-21T12:31:57;65630.31;;;29.86;64.63
7832;BME280;3961;42.058;25.586;2022-08-21T12:34:29;65610.47;;;29.71;64.87
7832;BME280;3961;42.058;25.586;2022-08-21T12:37:00;65649.75;;;30.02;65.91
7832;BME280;3961;42.058;25.586;2022-08-21T12:39:30;65656.03;;;30.05;65.55
7832;BME280;3961;42.058;25.586;2022-08-21T12:42:05;65615.78;;;29.75;65.43
7832;BME280;3961;42.058;25.586;2022-08-21T12:44:39;65587.28;;;29.49;66.74
7832;BME280;3961;42.058;25.586;2022-08-21T12:47:32;65607.31;;;29.66;68.11
7832;BME280;3961;42.058;25.586;2022-08-21T12:50:11;65614.00;;;29.74;71.40
7832;BME280;3961;42.058;25.586;2022-08-21T12:52:59;65568.19;;;29.30;72.79
7832;BME280;3961;42.058;25.586;2022-08-21T12:55:31;65578.44;;;29.41;71.76
7832;BME280;3961;42.058;25.586;2022-08-21T12:57:57;65560.38;;;29.28;70.58
7832;BME280;3961;42.058;25.586;2022-08-21T13:00:25;65547.81;;;29.15;69.33
7832;BME280;3961;42.058;25.586;2022-08-21T13:02:52;65561.16;;;29.31;68.12
7832;BME280;3961;42.058;25.586;2022-08-21T13:05:31;65554.66;;;29.18;68.48
7832;BME280;3961;42.058;25.586;2022-08-21T13:07:58;65535.06;;;29.06;68.30
7832;BME280;3961;42.058;25.586;2022-08-21T13:10:29;65499.72;;;28.75;72.83
7832;BME280;3961;42.058;25.586;2022-08-21T13:12:58;65491.84;;;28.66;74.81
7832;BME280;3961;42.058;25.586;2022-08-21T13:15:28;65483.81;;;28.62;76.78
7832;BME280;3961;42.058;25.586;2022-08-21T13:17:54;65498.31;;;28.72;76.96
7832;BME280;3961;42.058;25.586;2022-08-21T13:20:33;65487.50;;;28.60;78.00
7832;BME280;3961;42.058;25.586;2022-08-21T13:25:45;65440.06;;;28.22;79.43
7832;BME280;3961;42.058;25.586;2022-08-21T13:28:12;65433.44;;;28.21;79.63
7832;BME280;3961;42.058;25.586;2022-08-21T13:30:45;65422.97;;;28.07;81.51
7832;BME280;3961;42.058;25.586;2022-08-21T13:33:14;65401.22;;;27.88;83.98
7832;BME280;3961;42.058;25.586;2022-08-21T13:36:03;65357.88;;;27.53;86.18
7832;BME280;3961;42.058;25.586;2022-08-21T13:38:32;65358.69;;;27.56;85.85
7832;BME280;3961;42.058;25.586;2022-08-21T13:41:02;65356.72;;;27.52;86.54
7832;BME280;3961;42.058;25.586;2022-08-21T13:43:34;65362.84;;;27.60;86.40
7832;BME280;3961;42.058;25.586;2022-08-21T13:46:02;65389.28;;;27.83;86.46
7832;BME280;3961;42.058;25.586;2022-08-21T13:48:33;65387.09;;;27.76;86.99
7832;BME280;3961;42.058;25.586;2022-08-21T13:51:00;65382.00;;;27.74;86.64
7832;BME280;3961;42.058;25.586;2022-08-21T13:53:55;65382.38;;;27.72;86.31
7832;BME280;3961;42.058;25.586;2022-08-21T13:58:53;65387.69;;;27.76;87.24
7832;BME280;3961;42.058;25.586;2022-08-21T14:01:34;65389.28;;;27.83;85.59
7832;BME280;3961;42.058;25.586;2022-08-21T14:04:04;65372.59;;;27.66;86.05
7832;BME280;3961;42.058;25.586;2022-08-21T14:06:36;65353.41;;;27.52;87.63
7832;BME280;3961;42.058;25.586;2022-08-21T14:09:21;65352.97;;;27.47;88.45
7832;BME280;3961;42.058;25.586;2022-08-21T14:11:48;65337.88;;;27.36;88.57
7832;BME280;3961;42.058;25.586;2022-08-21T14:14:31;65332.00;;;27.31;89.87
7832;BME280;3961;42.058;25.586;2022-08-21T14:17:06;65332.41;;;27.29;90.05
7832;BME280;3961;42.058;25.586;2022-08-21T14:19:43;65330.25;;;27.29;89.89
7832;BME280;3961;42.058;25.586;2022-08-21T14:22:27;65342.75;;;27.35;88.60
7832;BME280;3961;42.058;25.586;2022-08-21T14:27:43;65324.59;;;27.27;87.09
7832;BME280;3961;42.058;25.586;2022-08-21T14:30:19;65312.63;;;27.14;86.28
7832;BME280;3961;42.058;25.586;2022-08-21T14:32:45;65324.97;;;27.25;86.42
7832;BME280;3961;42.058;25.586;2022-08-21T14:35:12;65319.69;;;27.20;86.47